sensor_id;sensor_type;location;lat;lon;timestamp;P1;durP1;ratioP1;P2;durP2;ratioP2
52838;SDS011;39219;53.678;9.856;2023-02-22T00:01:33;54.28;;;12.35;;
52838;SDS011;39219;53.678;9.856;2023-02-22T00:04:01;38.95;;;11.20;;
52838;SDS011;39219;53.678;9.856;2023-02-22T00:06:28;36.42;;;11.80;;
52838;SDS011;39219;53.678;9.856;2023-02-22T00:08:55;34.67;;;11.07;;
52838;SDS011;39219;53.678;9.856;2023-02-22T00:11:21;38.67;;;11.73;;
52838;SDS011;39219;53.678;9.856;2023-02-22T00:13:48;40.28;;;12.60;;
52838;SDS011;39219;53.678;9.856;2023-02-22T00:16:16;37.33;;;12.00;;
52838;SDS011;39219;53.678;9.856;2023-02-22T00:18:43;41.22;;;12.52;;
52838;SDS011;39219;53.678;9.856;2023-02-22T00:21:10;44.75;;;12.52;;
52838;SDS011;39219;53.678;9.856;2023-02-22T00:23:38;41.50;;;12.23;;
52838;SDS011;39219;53.678;9.856;2023-02-22T00:26:05;45.47;;;13.77;;
52838;SDS011;39219;53.678;9.856;2023-02-22T00:28:33;48.53;;;13.55;;
52838;SDS011;39219;53.678;9.856;2023-02-22T00:31:00;49.58;;;13.23;;
52838;SDS011;39219;53.678;9.856;2023-02-22T00:33:30;47.35;;;13.63;;
52838;SDS011;39219;53.678;9.856;2023-02-22T00:35:56;49.15;;;13.55;;
52838;SDS011;39219;53.678;9.856;2023-02-22T00:38:23;45.67;;;13.82;;
52838;SDS011;39219;53.678;9.856;2023-02-22T00:40:49;45.33;;;14.05;;
52838;SDS011;39219;53.678;9.856;2023-02-22T00:43:16;40.20;;;13.27;;
52838;SDS011;39219;53.678;9.856;2023-02-22T00:45:42;49.63;;;14.40;;
52838;SDS011;39219;53.678;9.856;2023-02-22T00:48:09;40.22;;;12.70;;
52838;SDS011;39219;53.678;9.856;2023-02-22T00:50:36;37.42;;;12.32;;
52838;SDS011;39219;53.678;9.856;2023-02-22T00:53:03;48.00;;;13.75;;
52838;SDS011;39219;53.678;9.856;2023-02-22T00:55:30;52.55;;;14.40;;
52838;SDS011;39219;53.678;9.856;2023-02-22T00:57:57;51.03;;;13.85;;
52838;SDS011;39219;53.678;9.856;2023-02-22T01:00:24;43.97;;;12.95;;
52838;SDS011;39219;53.678;9.856;2023-02-22T01:02:51;39.22;;;12.93;;
52838;SDS011;39219;53.678;9.856;2023-02-22T01:05:18;43.92;;;13.48;;
52838;SDS011;39219;53.678;9.856;2023-02-22T01:07:46;43.45;;;13.05;;
52838;SDS011;39219;53.678;9.856;2023-02-22T01:10:13;41.40;;;13.30;;
52838;SDS011;39219;53.678;9.856;2023-02-22T01:12:40;47.88;;;13.57;;
52838;SDS011;39219;53.678;9.856;2023-02-22T01:15:07;44.35;;;13.38;;
52838;SDS011;39219;53.678;9.856;2023-02-22T01:17:35;43.83;;;12.88;;
52838;SDS011;39219;53.678;9.856;2023-02-22T01:20:02;40.25;;;12.07;;
52838;SDS011;39219;53.678;9.856;2023-02-22T01:22:29;43.35;;;12.55;;
52838;SDS011;39219;53.678;9.856;2023-02-22T01:24:57;38.90;;;12.60;;
52838;SDS011;39219;53.678;9.856;2023-02-22T01:27:23;47.22;;;14.00;;
52838;SDS011;39219;53.678;9.856;2023-02-22T01:29:49;45.30;;;13.57;;
52838;SDS011;39219;53.678;9.856;2023-02-22T01:32:15;44.25;;;12.27;;
52838;SDS011;39219;53.678;9.856;2023-02-22T01:34:42;50.20;;;13.50;;
52838;SDS011;39219;53.678;9.856;2023-02-22T01:37:08;46.97;;;14.10;;
52838;SDS011;39219;53.678;9.856;2023-02-22T01:39:34;45.65;;;13.07;;
52838;SDS011;39219;53.678;9.856;2023-02-22T01:42:02;46.80;;;13.60;;
52838;SDS011;39219;53.678;9.856;2023-02-22T01:44:30;49.55;;;13.77;;
52838;SDS011;39219;53.678;9.856;2023-02-22T01:46:57;51.15;;;13.73;;
52838;SDS011;39219;53.678;9.856;2023-02-22T01:49:23;49.00;;;13.88;;
52838;SDS011;39219;53.678;9.856;2023-02-22T01:51:52;51.17;;;14.30;;
52838;SDS011;39219;53.678;9.856;2023-02-22T01:54:20;47.60;;;15.02;;
52838;SDS011;39219;53.678;9.856;2023-02-22T01:56:49;43.40;;;14.15;;
52838;SDS011;39219;53.678;9.856;2023-02-22T01:59:19;53.20;;;15.13;;
52838;SDS011;39219;53.678;9.856;2023-02-22T02:01:46;47.00;;;14.38;;
52838;SDS011;39219;53.678;9.856;2023-02-22T02:04:14;50.05;;;14.70;;
52838;SDS011;39219;53.678;9.856;2023-02-22T02:06:41;49.60;;;15.60;;
52838;SDS011;39219;53.678;9.856;2023-02-22T02:09:09;44.47;;;14.00;;
52838;SDS011;39219;53.678;9.856;2023-02-22T02:11:37;42.55;;;14.25;;
52838;SDS011;39219;53.678;9.856;2023-02-22T02:14:04;46.58;;;14.38;;
52838;SDS011;39219;53.678;9.856;2023-02-22T02:16:34;45.58;;;13.38;;
52838;SDS011;39219;53.678;9.856;2023-02-22T02:19:02;45.97;;;14.07;;
52838;SDS011;39219;53.678;9.856;2023-02-22T02:21:40;46.65;;;14.80;;
52838;SDS011;39219;53.678;9.856;2023-02-22T02:24:15;46.50;;;14.23;;
52838;SDS011;39219;53.678;9.856;2023-02-22T02:26:56;46.83;;;13.70;;
52838;SDS011;39219;53.678;9.856;2023-02-22T02:29:34;48.65;;;13.35;;
52838;SDS011;39219;53.678;9.856;2023-02-22T02:32:15;49.25;;;14.80;;
52838;SDS011;39219;53.678;9.856;2023-02-22T02:34:46;45.10;;;13.55;;
52838;SDS011;39219;53.678;9.856;2023-02-22T02:37:15;45.60;;;13.48;;
52838;SDS011;39219;53.678;9.856;2023-02-22T02:39:47;48.20;;;13.80;;
52838;SDS011;39219;53.678;9.856;2023-02-22T02:42:16;52.75;;;14.05;;
52838;SDS011;39219;53.678;9.856;2023-02-22T02:44:46;46.25;;;13.70;;
52838;SDS011;39219;53.678;9.856;2023-02-22T02:47:16;47.78;;;13.45;;
52838;SDS011;39219;53.678;9.856;2023-02-22T02:49:45;49.45;;;13.00;;
52838;SDS011;39219;53.678;9.856;2023-02-22T02:52:13;42.00;;;12.50;;
52838;SDS011;39219;53.678;9.856;2023-02-22T02:54:41;48.83;;;12.25;;
52838;SDS011;39219;53.678;9.856;2023-02-22T02:57:09;44.40;;;12.38;;
52838;SDS011;39219;53.678;9.856;2023-02-22T02:59:36;59.30;;;14.13;;
52838;SDS011;39219;53.678;9.856;2023-02-22T03:02:09;51.03;;;12.85;;
52838;SDS011;39219;53.678;9.856;2023-02-22T03:04:41;59.70;;;14.18;;
52838;SDS011;39219;53.678;9.856;2023-02-22T03:07:19;53.25;;;13.63;;
52838;SDS011;39219;53.678;9.856;2023-02-22T03:09:52;55.38;;;13.35;;
52838;SDS011;39219;53.678;9.856;2023-02-22T03:12:25;47.15;;;13.60;;
52838;SDS011;39219;53.678;9.856;2023-02-22T03:15:00;49.95;;;13.70;;
52838;SDS011;39219;53.678;9.856;2023-02-22T03:17:31;50.88;;;14.70;;
52838;SDS011;39219;53.678;9.856;2023-02-22T03:20:05;46.72;;;13.85;;
52838;SDS011;39219;53.678;9.856;2023-02-22T03:22:36;56.88;;;14.55;;
52838;SDS011;39219;53.678;9.856;2023-02-22T03:25:09;77.95;;;13.80;;
52838;SDS011;39219;53.678;9.856;2023-02-22T03:27:40;54.60;;;13.45;;
52838;SDS011;39219;53.678;9.856;2023-02-22T03:30:09;74.38;;;14.20;;
52838;SDS011;39219;53.678;9.856;2023-02-22T03:32:37;45.50;;;13.30;;
52838;SDS011;39219;53.678;9.856;2023-02-22T03:35:06;45.95;;;13.25;;
52838;SDS011;39219;53.678;9.856;2023-02-22T03:37:33;57.40;;;14.65;;
52838;SDS011;39219;53.678;9.856;2023-02-22T03:40:02;55.33;;;13.25;;
52838;SDS011;39219;53.678;9.856;2023-02-22T03:42:37;45.45;;;12.57;;
52838;SDS011;39219;53.678;9.856;2023-02-22T03:45:05;56.92;;;13.63;;
52838;SDS011;39219;53.678;9.856;2023-02-22T03:47:34;50.90;;;13.55;;
52838;SDS011;39219;53.678;9.856;2023-02-22T03:50:04;48.83;;;13.40;;
52838;SDS011;39219;53.678;9.856;2023-02-22T03:52:34;51.85;;;14.10;;
52838;SDS011;39219;53.678;9.856;2023-02-22T03:55:01;51.88;;;13.65;;
52838;SDS011;39219;53.678;9.856;2023-02-22T03:57:28;62.63;;;14.68;;
52838;SDS011;39219;53.678;9.856;2023-02-22T03:59:57;62.38;;;14.32;;
52838;SDS011;39219;53.678;9.856;2023-02-22T04:02:23;68.72;;;14.25;;
52838;SDS011;39219;53.678;9.856;2023-02-22T04:04:49;58.95;;;12.90;;
52838;SDS011;39219;53.678;9.856;2023-02-22T04:07:16;57.38;;;14.52;;
52838;SDS011;39219;53.678;9.856;2023-02-22T04:09:44;61.42;;;13.90;;
52838;SDS011;39219;53.678;9.856;2023-02-22T04:12:10;58.13;;;14.55;;
52838;SDS011;39219;53.678;9.856;2023-02-22T04:14:37;53.33;;;13.57;;
52838;SDS011;39219;53.678;9.856;2023-02-22T04:17:03;53.85;;;13.40;;
52838;SDS011;39219;53.678;9.856;2023-02-22T04:19:29;56.97;;;14.20;;
52838;SDS011;39219;53.678;9.856;2023-02-22T04:21:56;57.60;;;13.98;;
52838;SDS011;39219;53.678;9.856;2023-02-22T04:24:22;83.30;;;14.43;;
52838;SDS011;39219;53.678;9.856;2023-02-22T04:26:50;58.63;;;13.50;;
52838;SDS011;39219;53.678;9.856;2023-02-22T04:29:16;63.75;;;14.27;;
52838;SDS011;39219;53.678;9.856;2023-02-22T04:31:43;67.85;;;14.75;;
52838;SDS011;39219;53.678;9.856;2023-02-22T04:34:09;62.95;;;15.27;;
52838;SDS011;39219;53.678;9.856;2023-02-22T04:36:35;71.43;;;16.33;;
52838;SDS011;39219;53.678;9.856;2023-02-22T04:39:02;71.60;;;15.57;;
52838;SDS011;39219;53.678;9.856;2023-02-22T04:41:29;72.85;;;14.93;;
52838;SDS011;39219;53.678;9.856;2023-02-22T04:43:57;72.38;;;15.57;;
52838;SDS011;39219;53.678;9.856;2023-02-22T04:46:23;75.97;;;16.88;;
52838;SDS011;39219;53.678;9.856;2023-02-22T04:48:50;73.90;;;17.02;;
52838;SDS011;39219;53.678;9.856;2023-02-22T04:51:16;74.53;;;17.40;;
52838;SDS011;39219;53.678;9.856;2023-02-22T04:53:43;73.00;;;17.50;;
52838;SDS011;39219;53.678;9.856;2023-02-22T04:56:10;76.72;;;18.23;;
52838;SDS011;39219;53.678;9.856;2023-02-22T04:58:36;61.72;;;16.92;;
52838;SDS011;39219;53.678;9.856;2023-02-22T05:01:04;66.07;;;15.90;;
52838;SDS011;39219;53.678;9.856;2023-02-22T05:03:30;66.43;;;18.17;;
52838;SDS011;39219;53.678;9.856;2023-02-22T05:05:56;65.93;;;17.20;;
52838;SDS011;39219;53.678;9.856;2023-02-22T05:08:23;62.17;;;16.83;;
52838;SDS011;39219;53.678;9.856;2023-02-22T05:10:49;58.13;;;17.02;;
52838;SDS011;39219;53.678;9.856;2023-02-22T05:13:15;57.88;;;18.25;;
52838;SDS011;39219;53.678;9.856;2023-02-22T05:15:41;58.40;;;17.27;;
52838;SDS011;39219;53.678;9.856;2023-02-22T05:18:09;54.97;;;17.23;;
52838;SDS011;39219;53.678;9.856;2023-02-22T05:20:35;55.97;;;18.02;;
52838;SDS011;39219;53.678;9.856;2023-02-22T05:23:02;57.83;;;16.80;;
52838;SDS011;39219;53.678;9.856;2023-02-22T05:25:29;53.28;;;16.55;;
52838;SDS011;39219;53.678;9.856;2023-02-22T05:27:57;60.83;;;17.92;;
52838;SDS011;39219;53.678;9.856;2023-02-22T05:30:24;50.90;;;16.95;;
52838;SDS011;39219;53.678;9.856;2023-02-22T05:32:51;57.85;;;16.48;;
52838;SDS011;39219;53.678;9.856;2023-02-22T05:35:19;49.63;;;15.85;;
52838;SDS011;39219;53.678;9.856;2023-02-22T05:37:48;53.08;;;18.45;;
52838;SDS011;39219;53.678;9.856;2023-02-22T05:40:16;51.38;;;17.02;;
52838;SDS011;39219;53.678;9.856;2023-02-22T05:42:43;50.80;;;16.92;;
52838;SDS011;39219;53.678;9.856;2023-02-22T05:45:10;48.00;;;15.70;;
52838;SDS011;39219;53.678;9.856;2023-02-22T05:47:37;54.00;;;17.42;;
52838;SDS011;39219;53.678;9.856;2023-02-22T05:50:04;52.00;;;16.70;;
52838;SDS011;39219;53.678;9.856;2023-02-22T05:52:31;50.22;;;16.73;;
52838;SDS011;39219;53.678;9.856;2023-02-22T05:54:58;50.33;;;16.60;;
52838;SDS011;39219;53.678;9.856;2023-02-22T05:57:24;65.07;;;17.65;;
52838;SDS011;39219;53.678;9.856;2023-02-22T05:59:50;53.60;;;17.17;;
52838;SDS011;39219;53.678;9.856;2023-02-22T06:02:17;54.30;;;15.80;;
52838;SDS011;39219;53.678;9.856;2023-02-22T06:04:43;53.40;;;16.30;;
52838;SDS011;39219;53.678;9.856;2023-02-22T06:07:09;58.90;;;18.00;;
52838;SDS011;39219;53.678;9.856;2023-02-22T06:09:37;60.38;;;17.83;;
52838;SDS011;39219;53.678;9.856;2023-02-22T06:12:03;58.05;;;17.27;;
52838;SDS011;39219;53.678;9.856;2023-02-22T06:14:30;66.85;;;18.38;;
52838;SDS011;39219;53.678;9.856;2023-02-22T06:16:56;56.70;;;17.25;;
52838;SDS011;39219;53.678;9.856;2023-02-22T06:19:23;62.05;;;18.00;;
52838;SDS011;39219;53.678;9.856;2023-02-22T06:21:50;61.38;;;18.58;;
52838;SDS011;39219;53.678;9.856;2023-02-22T06:24:16;64.88;;;18.30;;
52838;SDS011;39219;53.678;9.856;2023-02-22T06:26:44;66.57;;;17.65;;
52838;SDS011;39219;53.678;9.856;2023-02-22T06:29:10;56.80;;;17.67;;
52838;SDS011;39219;53.678;9.856;2023-02-22T06:31:37;64.30;;;17.92;;
52838;SDS011;39219;53.678;9.856;2023-02-22T06:34:03;68.82;;;17.92;;
52838;SDS011;39219;53.678;9.856;2023-02-22T06:36:29;63.78;;;17.83;;
52838;SDS011;39219;53.678;9.856;2023-02-22T06:38:56;66.10;;;18.52;;
52838;SDS011;39219;53.678;9.856;2023-02-22T06:41:22;58.35;;;17.48;;
52838;SDS011;39219;53.678;9.856;2023-02-22T06:43:50;69.47;;;18.35;;
52838;SDS011;39219;53.678;9.856;2023-02-22T06:46:17;78.45;;;19.88;;
52838;SDS011;39219;53.678;9.856;2023-02-22T06:48:45;66.80;;;18.98;;
52838;SDS011;39219;53.678;9.856;2023-02-22T06:51:11;66.95;;;18.73;;
52838;SDS011;39219;53.678;9.856;2023-02-22T06:53:37;70.15;;;19.23;;
52838;SDS011;39219;53.678;9.856;2023-02-22T06:56:04;65.20;;;18.73;;
52838;SDS011;39219;53.678;9.856;2023-02-22T06:58:30;69.78;;;19.08;;
52838;SDS011;39219;53.678;9.856;2023-02-22T07:00:58;63.20;;;19.13;;
52838;SDS011;39219;53.678;9.856;2023-02-22T07:03:26;70.97;;;18.77;;
52838;SDS011;39219;53.678;9.856;2023-02-22T07:05:52;80.65;;;19.88;;
52838;SDS011;39219;53.678;9.856;2023-02-22T07:08:19;75.80;;;19.75;;
52838;SDS011;39219;53.678;9.856;2023-02-22T07:10:45;73.47;;;20.52;;
52838;SDS011;39219;53.678;9.856;2023-02-22T07:13:14;71.45;;;19.75;;
52838;SDS011;39219;53.678;9.856;2023-02-22T07:15:40;74.75;;;19.83;;
52838;SDS011;39219;53.678;9.856;2023-02-22T07:18:08;70.85;;;20.25;;
52838;SDS011;39219;53.678;9.856;2023-02-22T07:20:35;68.25;;;18.95;;
52838;SDS011;39219;53.678;9.856;2023-02-22T07:23:02;67.68;;;19.10;;
52838;SDS011;39219;53.678;9.856;2023-02-22T07:25:28;69.35;;;19.25;;
52838;SDS011;39219;53.678;9.856;2023-02-22T07:27:54;74.70;;;19.48;;
52838;SDS011;39219;53.678;9.856;2023-02-22T07:30:21;65.55;;;18.88;;
52838;SDS011;39219;53.678;9.856;2023-02-22T07:32:49;71.00;;;20.27;;
52838;SDS011;39219;53.678;9.856;2023-02-22T07:35:18;75.68;;;20.73;;
52838;SDS011;39219;53.678;9.856;2023-02-22T07:37:44;72.35;;;19.73;;
52838;SDS011;39219;53.678;9.856;2023-02-22T07:40:12;70.10;;;18.55;;
52838;SDS011;39219;53.678;9.856;2023-02-22T07:42:55;72.18;;;19.58;;
52838;SDS011;39219;53.678;9.856;2023-02-22T07:45:21;70.82;;;19.10;;
52838;SDS011;39219;53.678;9.856;2023-02-22T07:47:48;67.65;;;19.25;;
52838;SDS011;39219;53.678;9.856;2023-02-22T07:50:14;64.53;;;18.88;;
52838;SDS011;39219;53.678;9.856;2023-02-22T07:52:44;73.35;;;18.80;;
52838;SDS011;39219;53.678;9.856;2023-02-22T07:55:12;66.20;;;20.02;;
52838;SDS011;39219;53.678;9.856;2023-02-22T07:57:38;65.40;;;18.23;;
52838;SDS011;39219;53.678;9.856;2023-02-22T08:00:05;65.80;;;19.27;;
52838;SDS011;39219;53.678;9.856;2023-02-22T08:02:31;73.20;;;20.13;;
52838;SDS011;39219;53.678;9.856;2023-02-22T08:04:58;68.72;;;18.70;;
52838;SDS011;39219;53.678;9.856;2023-02-22T08:07:24;67.95;;;18.02;;
52838;SDS011;39219;53.678;9.856;2023-02-22T08:09:52;61.28;;;19.05;;
52838;SDS011;39219;53.678;9.856;2023-02-22T08:12:18;62.63;;;18.80;;
52838;SDS011;39219;53.678;9.856;2023-02-22T08:14:44;64.68;;;19.70;;
52838;SDS011;39219;53.678;9.856;2023-02-22T08:17:10;58.78;;;17.98;;
52838;SDS011;39219;53.678;9.856;2023-02-22T08:19:37;62.45;;;18.95;;
52838;SDS011;39219;53.678;9.856;2023-02-22T08:22:03;57.00;;;17.90;;
52838;SDS011;39219;53.678;9.856;2023-02-22T08:24:30;57.67;;;17.70;;
52838;SDS011;39219;53.678;9.856;2023-02-22T08:26:58;57.20;;;18.38;;
52838;SDS011;39219;53.678;9.856;2023-02-22T08:29:24;58.95;;;17.88;;
52838;SDS011;39219;53.678;9.856;2023-02-22T08:31:57;57.15;;;17.50;;
52838;SDS011;39219;53.678;9.856;2023-02-22T08:34:23;56.97;;;17.70;;
52838;SDS011;39219;53.678;9.856;2023-02-22T08:36:49;50.10;;;16.77;;
52838;SDS011;39219;53.678;9.856;2023-02-22T08:39:16;47.45;;;16.63;;
52838;SDS011;39219;53.678;9.856;2023-02-22T08:41:42;49.63;;;15.93;;
52838;SDS011;39219;53.678;9.856;2023-02-22T08:44:10;54.05;;;16.40;;
52838;SDS011;39219;53.678;9.856;2023-02-22T08:46:36;43.20;;;15.82;;
52838;SDS011;39219;53.678;9.856;2023-02-22T08:49:03;43.65;;;15.63;;
52838;SDS011;39219;53.678;9.856;2023-02-22T08:51:33;45.50;;;16.58;;
52838;SDS011;39219;53.678;9.856;2023-02-22T08:53:59;43.92;;;15.88;;
52838;SDS011;39219;53.678;9.856;2023-02-22T08:56:25;45.65;;;16.13;;
52838;SDS011;39219;53.678;9.856;2023-02-22T08:58:53;44.15;;;15.73;;
52838;SDS011;39219;53.678;9.856;2023-02-22T09:01:22;40.78;;;15.27;;
52838;SDS011;39219;53.678;9.856;2023-02-22T09:03:49;39.80;;;14.65;;
52838;SDS011;39219;53.678;9.856;2023-02-22T09:06:15;38.88;;;15.18;;
52838;SDS011;39219;53.678;9.856;2023-02-22T09:08:42;36.95;;;14.35;;
52838;SDS011;39219;53.678;9.856;2023-02-22T09:11:08;36.97;;;14.15;;
52838;SDS011;39219;53.678;9.856;2023-02-22T09:13:34;34.33;;;14.50;;
52838;SDS011;39219;53.678;9.856;2023-02-22T09:16:00;35.03;;;14.00;;
52838;SDS011;39219;53.678;9.856;2023-02-22T09:18:28;30.45;;;13.10;;
52838;SDS011;39219;53.678;9.856;2023-02-22T09:20:54;30.92;;;13.48;;
52838;SDS011;39219;53.678;9.856;2023-02-22T09:23:21;32.95;;;13.88;;
52838;SDS011;39219;53.678;9.856;2023-02-22T09:25:48;28.88;;;12.68;;
52838;SDS011;39219;53.678;9.856;2023-02-22T09:28:14;26.60;;;12.13;;
52838;SDS011;39219;53.678;9.856;2023-02-22T09:30:40;27.85;;;12.20;;
52838;SDS011;39219;53.678;9.856;2023-02-22T09:33:07;28.05;;;11.48;;
52838;SDS011;39219;53.678;9.856;2023-02-22T09:35:36;30.15;;;11.45;;
52838;SDS011;39219;53.678;9.856;2023-02-22T09:38:06;24.60;;;10.48;;
52838;SDS011;39219;53.678;9.856;2023-02-22T09:40:33;27.02;;;11.52;;
52838;SDS011;39219;53.678;9.856;2023-02-22T09:43:07;28.83;;;13.10;;
52838;SDS011;39219;53.678;9.856;2023-02-22T09:45:35;31.17;;;13.80;;
52838;SDS011;39219;53.678;9.856;2023-02-22T09:48:05;35.25;;;15.35;;
52838;SDS011;39219;53.678;9.856;2023-02-22T09:50:33;36.35;;;16.40;;
52838;SDS011;39219;53.678;9.856;2023-02-22T09:53:02;38.17;;;17.05;;
52838;SDS011;39219;53.678;9.856;2023-02-22T09:55:30;38.22;;;16.95;;
52838;SDS011;39219;53.678;9.856;2023-02-22T09:57:58;41.33;;;18.42;;
52838;SDS011;39219;53.678;9.856;2023-02-22T10:00:26;45.00;;;18.88;;
52838;SDS011;39219;53.678;9.856;2023-02-22T10:02:57;42.28;;;18.13;;
52838;SDS011;39219;53.678;9.856;2023-02-22T10:05:26;43.58;;;18.60;;
52838;SDS011;39219;53.678;9.856;2023-02-22T10:07:57;42.55;;;18.60;;
52838;SDS011;39219;53.678;9.856;2023-02-22T10:10:28;43.53;;;18.10;;
52838;SDS011;39219;53.678;9.856;2023-02-22T10:12:58;46.33;;;18.05;;
52838;SDS011;39219;53.678;9.856;2023-02-22T10:15:30;43.05;;;17.88;;
52838;SDS011;39219;53.678;9.856;2023-02-22T10:18:03;44.92;;;17.55;;
52838;SDS011;39219;53.678;9.856;2023-02-22T10:20:41;43.30;;;17.73;;
52838;SDS011;39219;53.678;9.856;2023-02-22T10:23:12;40.40;;;16.98;;
52838;SDS011;39219;53.678;9.856;2023-02-22T10:25:44;38.65;;;16.92;;
52838;SDS011;39219;53.678;9.856;2023-02-22T10:28:13;43.15;;;17.83;;
52838;SDS011;39219;53.678;9.856;2023-02-22T10:30:41;37.80;;;17.30;;
52838;SDS011;39219;53.678;9.856;2023-02-22T10:33:09;38.00;;;16.65;;
52838;SDS011;39219;53.678;9.856;2023-02-22T10:35:37;39.83;;;17.35;;
52838;SDS011;39219;53.678;9.856;2023-02-22T10:38:09;39.40;;;17.30;;
52838;SDS011;39219;53.678;9.856;2023-02-22T10:40:37;35.92;;;15.93;;
52838;SDS011;39219;53.678;9.856;2023-02-22T10:43:05;38.95;;;16.90;;
52838;SDS011;39219;53.678;9.856;2023-02-22T10:45:33;38.15;;;16.10;;
52838;SDS011;39219;53.678;9.856;2023-02-22T10:48:02;35.95;;;15.35;;
52838;SDS011;39219;53.678;9.856;2023-02-22T10:50:32;32.30;;;14.90;;
52838;SDS011;39219;53.678;9.856;2023-02-22T10:53:00;33.47;;;14.93;;
52838;SDS011;39219;53.678;9.856;2023-02-22T10:55:26;33.38;;;15.27;;
52838;SDS011;39219;53.678;9.856;2023-02-22T10:57:58;37.90;;;16.27;;
52838;SDS011;39219;53.678;9.856;2023-02-22T11:00:29;36.10;;;16.73;;
52838;SDS011;39219;53.678;9.856;2023-02-22T11:02:56;33.28;;;15.68;;
52838;SDS011;39219;53.678;9.856;2023-02-22T11:05:33;32.15;;;14.38;;
52838;SDS011;39219;53.678;9.856;2023-02-22T11:08:14;30.15;;;13.63;;
52838;SDS011;39219;53.678;9.856;2023-02-22T11:10:41;28.95;;;12.63;;
52838;SDS011;39219;53.678;9.856;2023-02-22T11:13:15;25.70;;;10.93;;
52838;SDS011;39219;53.678;9.856;2023-02-22T11:15:43;26.25;;;12.10;;
52838;SDS011;39219;53.678;9.856;2023-02-22T11:18:15;27.50;;;11.55;;
52838;SDS011;39219;53.678;9.856;2023-02-22T11:20:47;25.77;;;10.80;;
52838;SDS011;39219;53.678;9.856;2023-02-22T11:23:13;24.92;;;11.48;;
52838;SDS011;39219;53.678;9.856;2023-02-22T11:25:47;26.58;;;11.98;;
52838;SDS011;39219;53.678;9.856;2023-02-22T11:28:16;26.77;;;11.52;;
52838;SDS011;39219;53.678;9.856;2023-02-22T11:30:45;25.67;;;11.95;;
52838;SDS011;39219;53.678;9.856;2023-02-22T11:33:15;24.40;;;11.68;;
52838;SDS011;39219;53.678;9.856;2023-02-22T11:38:15;25.95;;;11.43;;
52838;SDS011;39219;53.678;9.856;2023-02-22T11:40:42;24.38;;;11.75;;
52838;SDS011;39219;53.678;9.856;2023-02-22T11:43:09;24.17;;;11.60;;
52838;SDS011;39219;53.678;9.856;2023-02-22T11:45:39;25.23;;;12.15;;
52838;SDS011;39219;53.678;9.856;2023-02-22T11:48:21;23.05;;;11.18;;
52838;SDS011;39219;53.678;9.856;2023-02-22T11:50:52;24.73;;;11.73;;
52838;SDS011;39219;53.678;9.856;2023-02-22T11:53:23;23.27;;;11.48;;
52838;SDS011;39219;53.678;9.856;2023-02-22T11:55:52;24.05;;;11.57;;
52838;SDS011;39219;53.678;9.856;2023-02-22T11:58:30;25.55;;;11.50;;
52838;SDS011;39219;53.678;9.856;2023-02-22T12:01:01;24.23;;;11.70;;
52838;SDS011;39219;53.678;9.856;2023-02-22T12:03:42;26.92;;;11.65;;
52838;SDS011;39219;53.678;9.856;2023-02-22T12:06:20;24.65;;;11.98;;
52838;SDS011;39219;53.678;9.856;2023-02-22T12:08:54;23.95;;;11.15;;
52838;SDS011;39219;53.678;9.856;2023-02-22T12:11:26;22.65;;;11.60;;
52838;SDS011;39219;53.678;9.856;2023-02-22T12:14:00;24.65;;;11.63;;
52838;SDS011;39219;53.678;9.856;2023-02-22T12:16:33;24.70;;;11.50;;
52838;SDS011;39219;53.678;9.856;2023-02-22T12:19:06;23.52;;;11.55;;
52838;SDS011;39219;53.678;9.856;2023-02-22T12:21:35;23.27;;;12.18;;
52838;SDS011;39219;53.678;9.856;2023-02-22T12:24:05;24.67;;;11.43;;
52838;SDS011;39219;53.678;9.856;2023-02-22T12:26:33;23.15;;;11.32;;
52838;SDS011;39219;53.678;9.856;2023-02-22T12:29:02;22.13;;;11.75;;
52838;SDS011;39219;53.678;9.856;2023-02-22T12:31:31;22.60;;;11.80;;
52838;SDS011;39219;53.678;9.856;2023-02-22T12:34:01;23.55;;;11.95;;
52838;SDS011;39219;53.678;9.856;2023-02-22T12:36:35;26.90;;;13.02;;
52838;SDS011;39219;53.678;9.856;2023-02-22T12:39:03;25.63;;;12.38;;
52838;SDS011;39219;53.678;9.856;2023-02-22T12:41:32;25.60;;;13.40;;
52838;SDS011;39219;53.678;9.856;2023-02-22T12:44:01;26.48;;;12.40;;
52838;SDS011;39219;53.678;9.856;2023-02-22T12:46:29;26.35;;;12.25;;
52838;SDS011;39219;53.678;9.856;2023-02-22T12:48:59;23.35;;;11.85;;
52838;SDS011;39219;53.678;9.856;2023-02-22T12:51:30;24.92;;;12.05;;
52838;SDS011;39219;53.678;9.856;2023-02-22T12:54:03;23.88;;;11.65;;
52838;SDS011;39219;53.678;9.856;2023-02-22T12:56:33;22.23;;;11.10;;
52838;SDS011;39219;53.678;9.856;2023-02-22T12:59:02;23.13;;;10.82;;
52838;SDS011;39219;53.678;9.856;2023-02-22T13:01:33;21.58;;;10.80;;
52838;SDS011;39219;53.678;9.856;2023-02-22T13:04:01;21.85;;;10.88;;
52838;SDS011;39219;53.678;9.856;2023-02-22T13:06:35;23.63;;;11.00;;
52838;SDS011;39219;53.678;9.856;2023-02-22T13:09:13;24.20;;;11.13;;
52838;SDS011;39219;53.678;9.856;2023-02-22T13:11:46;23.77;;;10.68;;
52838;SDS011;39219;53.678;9.856;2023-02-22T13:14:18;23.00;;;11.43;;
52838;SDS011;39219;53.678;9.856;2023-02-22T13:16:46;23.15;;;10.57;;
52838;SDS011;39219;53.678;9.856;2023-02-22T13:19:20;23.17;;;11.38;;
52838;SDS011;39219;53.678;9.856;2023-02-22T13:21:52;24.30;;;11.52;;
52838;SDS011;39219;53.678;9.856;2023-02-22T13:24:22;28.10;;;11.55;;
52838;SDS011;39219;53.678;9.856;2023-02-22T13:26:51;21.13;;;11.32;;
52838;SDS011;39219;53.678;9.856;2023-02-22T13:29:19;24.85;;;11.57;;
52838;SDS011;39219;53.678;9.856;2023-02-22T13:31:54;21.30;;;10.65;;
52838;SDS011;39219;53.678;9.856;2023-02-22T13:34:31;19.73;;;10.75;;
52838;SDS011;39219;53.678;9.856;2023-02-22T13:37:04;21.77;;;10.70;;
52838;SDS011;39219;53.678;9.856;2023-02-22T13:39:41;20.98;;;10.98;;
52838;SDS011;39219;53.678;9.856;2023-02-22T13:45:11;22.13;;;10.32;;
52838;SDS011;39219;53.678;9.856;2023-02-22T13:47:51;20.35;;;10.25;;
52838;SDS011;39219;53.678;9.856;2023-02-22T13:53:11;22.77;;;10.98;;
52838;SDS011;39219;53.678;9.856;2023-02-22T13:55:40;19.83;;;10.18;;
52838;SDS011;39219;53.678;9.856;2023-02-22T13:58:08;20.17;;;10.40;;
52838;SDS011;39219;53.678;9.856;2023-02-22T14:00:43;20.50;;;11.18;;
52838;SDS011;39219;53.678;9.856;2023-02-22T14:03:27;21.85;;;11.00;;
52838;SDS011;39219;53.678;9.856;2023-02-22T14:05:55;20.35;;;10.23;;
52838;SDS011;39219;53.678;9.856;2023-02-22T14:08:37;20.50;;;10.18;;
52838;SDS011;39219;53.678;9.856;2023-02-22T14:11:07;19.73;;;10.68;;
52838;SDS011;39219;53.678;9.856;2023-02-22T14:19:37;20.20;;;9.27;;
52838;SDS011;39219;53.678;9.856;2023-02-22T14:22:04;18.98;;;9.23;;
52838;SDS011;39219;53.678;9.856;2023-02-22T14:24:39;20.02;;;9.65;;
52838;SDS011;39219;53.678;9.856;2023-02-22T14:27:07;19.20;;;9.30;;
52838;SDS011;39219;53.678;9.856;2023-02-22T14:29:33;20.08;;;9.82;;
52838;SDS011;39219;53.678;9.856;2023-02-22T14:32:01;20.40;;;9.93;;
52838;SDS011;39219;53.678;9.856;2023-02-22T14:34:42;18.88;;;9.32;;
52838;SDS011;39219;53.678;9.856;2023-02-22T14:37:10;20.33;;;9.65;;
52838;SDS011;39219;53.678;9.856;2023-02-22T14:39:38;19.70;;;9.77;;
52838;SDS011;39219;53.678;9.856;2023-02-22T14:42:07;18.45;;;9.70;;
52838;SDS011;39219;53.678;9.856;2023-02-22T14:44:37;18.13;;;9.50;;